Terminal Aerodrome Forecast
Issued by NWS

Home | Current Version | Previous Version | Text Only | Print | Product List | Glossary On
Versions: 1 2 3 4 5 6 7 8 9 10 11 12 13 14 15
000
FTUS46 KSEW 251100
TAFHQM
TAF
KHQM 251128Z 2512/2612 VRB03KT 5SM BR SCT001
      TEMPO 2512/2514 1/2SM FG BKN001
     FM251600 27006KT P6SM FEW025 BKN050
     FM252200 25010KT P6SM FEW035 SCT060
     FM260900 07006KT P6SM SCT060=

USA.gov is the U.S. government's official web portal to all federal, state and local government web resources and services.